Soaring Guidance
Issued by NWS Reno, NV

Current Version | Previous Version | Text Only | Print | Product List | Glossary On
Versions: 1 2 3 4 5 6 7 8 9 10 11 12
000
UXUS97 KREV 051402
SRGREV

SOARING FORECAST
NATIONAL WEATHER SERVICE - RENO NV
700 AM PDT SUN JUL 5 2015

THIS SOARING FORECAST IS FOR THE EASTERN SIERRA AND WESTERN NEVADA
WITH SPECIFIC INDICES FOR THE GREATER RENO AREA.

THIS FORECAST IS PREPARED DAILY BY 700 AM AND IS NOT UPDATED.

FOR CURRENT FLIGHT CONDITIONS...FORECASTS...AND ADVISORIES...ACCESS
YOUR LOCAL BRIEFING OUTLET OR FLIGHT SERVICE STATION.

*******************************************************************
FORECASTED LOCAL INDICES FOR RENO:        TODAY     YESTERDAY
FORECASTED MAX TEMP AT RENO (DEG F).....     92          93
FORECASTED TRIGGER TEMPERATURE (DEG F)..     75          82
   EXCEEDED YESTERDAY BY 1155 AM PDT
FORECASTED MAXIMUM ALTITUDE (FT MSL)....  17500       16000
FORECASTED SOARING INDEX (FPM)..........   1095         990
FORECASTED K-INDEX.........VALID 18Z....     32          28
FORECASTED K-INDEX.........VALID 00Z....     33          34
FORECASTED LIFTED INDEX....VALID 18Z....     -1           2
FORECASTED LIFTED INDEX....VALID 00Z....      0          -2

AFTERNOON WINDS ALOFT FORECAST
MSL (FT) WIND/TEMP
9000  3006/+17
10000 3006/+14
12000 3006/+08
14000 2707/+02
16000 2609/-03
18000 2614/-09
24000 2315/-21
30000 2123/-37
34000 2125/-46
39000 2028/-53

SLIDE MOUNTAIN DATA:
     DATE       TIME     TEMP  DEWPT   RH         WIND (MPH)
                        (F)   (F)           | DIR  SPEED GUST
2015-07-05    05:50      49    38     70    | 121    5    7
2015-07-05    05:30      49    38     69    | 111    5    7
2015-07-05    05:20      49    38     71    | 094    6    9
2015-07-05    05:00      49    38     69    | 094    7    9

RENO TAF FORECAST:
KRNO 051126Z 0512/0612 VRB04KT P6SM FEW120 SCT200
     FM052200 28008KT P6SM VCSH BKN110 BKN200
     FM060400 30007KT P6SM SCT120 BKN200

CARSON CITY TAF FORECAST:
KCXP 051126Z 0512/0612 VRB04KT P6SM FEW120 SCT200
     FM051900 16007KT P6SM SCT100 BKN200
     FM052200 26007KT P6SM VCSH BKN100 BKN200
     FM060300 VRB04KT P6SM SCT120 BKN200

OUTLOOK FOR THE RENO-CARSON CITY-MINDEN AREA:
.MONDAY...PARTLY CLOUDY IN THE MORNING...THEN MOSTLY CLOUDY WITH
SCATTERED SHOWERS AND THUNDERSTORMS IN THE AFTERNOON. HIGHS 87 TO
92. LIGHT WINDS.

SUNRISE AND SUNSET
JULY  5 2015..........SUNRISE   538 AM PDT   SUNSET   830 PM PDT
JULY  6 2015..........SUNRISE   538 AM PDT   SUNSET   829 PM PDT



USA.gov is the U.S. government's official web portal to all federal, state and local government web resources and services.